createdAt,value
2018-02-14T00:00:12.335Z,0.00
2018-02-14T00:02:05.650Z,0.00
2018-02-14T00:03:05.626Z,0.00
2018-02-14T00:04:58.456Z,0.00
2018-02-14T00:05:58.414Z,0.00
2018-02-14T00:07:51.232Z,0.00
2018-02-14T00:08:51.205Z,0.00
2018-02-14T00:10:44.045Z,0.00
2018-02-14T00:11:44.042Z,0.00
2018-02-14T00:13:36.823Z,0.00
2018-02-14T00:14:36.791Z,0.00
2018-02-14T00:16:30.125Z,0.00
2018-02-14T00:17:30.078Z,0.00
2018-02-14T00:19:22.896Z,0.00
2018-02-14T00:20:22.874Z,0.00
2018-02-14T00:22:15.706Z,0.00
2018-02-14T00:23:15.663Z,0.00
2018-02-14T00:25:08.486Z,0.00
2018-02-14T00:26:08.459Z,0.00
2018-02-14T00:28:01.296Z,0.00
2018-02-14T00:29:01.251Z,0.00
2018-02-14T00:30:54.067Z,0.00
2018-02-14T00:31:54.038Z,0.00
2018-02-14T00:33:46.870Z,0.00
2018-02-14T00:34:46.826Z,0.00
2018-02-14T00:36:39.645Z,0.00
2018-02-14T00:37:39.618Z,0.00
2018-02-14T00:39:32.454Z,0.00
2018-02-14T00:40:32.408Z,0.00
2018-02-14T00:42:25.224Z,0.00
2018-02-14T00:43:25.197Z,0.00
2018-02-14T00:45:18.031Z,0.00
2018-02-14T00:46:17.986Z,0.00
2018-02-14T00:48:10.812Z,0.00
2018-02-14T00:49:10.786Z,0.00
2018-02-14T00:51:03.622Z,0.00
2018-02-14T00:52:03.579Z,0.00
2018-02-14T00:53:56.393Z,0.00
2018-02-14T00:54:56.367Z,0.00
2018-02-14T00:56:49.293Z,0.00
2018-02-14T00:57:49.156Z,0.00
2018-02-14T00:59:41.975Z,0.00
2018-02-14T01:00:41.945Z,0.00
2018-02-14T01:02:34.778Z,0.00
2018-02-14T01:03:34.737Z,0.00
2018-02-14T01:05:27.558Z,0.00
2018-02-14T01:06:27.532Z,0.00
2018-02-14T01:08:20.369Z,0.00
2018-02-14T01:09:20.335Z,0.00
2018-02-14T01:11:13.147Z,0.00
2018-02-14T01:12:13.120Z,0.00
2018-02-14T01:14:05.955Z,0.00
2018-02-14T01:15:05.910Z,0.00
2018-02-14T01:16:58.728Z,0.00
2018-02-14T01:17:58.699Z,0.00
2018-02-14T01:19:51.540Z,0.00
2018-02-14T01:20:51.493Z,0.00
2018-02-14T01:22:44.315Z,0.00
2018-02-14T01:23:44.284Z,0.00
2018-02-14T01:25:37.116Z,0.00
2018-02-14T01:26:37.074Z,0.00
2018-02-14T01:28:29.896Z,0.00
2018-02-14T01:29:29.867Z,0.00
2018-02-14T01:31:22.709Z,0.00
2018-02-14T01:32:22.658Z,0.00
2018-02-14T01:34:15.481Z,0.00
2018-02-14T01:35:15.453Z,0.00
2018-02-14T01:37:08.285Z,0.00
2018-02-14T01:38:08.243Z,0.00
2018-02-14T01:40:01.062Z,0.00
2018-02-14T01:41:01.047Z,0.00
2018-02-14T01:42:53.865Z,0.00
2018-02-14T01:43:53.823Z,0.00
2018-02-14T01:45:46.643Z,0.00
2018-02-14T01:46:46.617Z,0.00
2018-02-14T01:48:39.951Z,0.00
2018-02-14T01:49:39.908Z,0.00
2018-02-14T01:51:32.726Z,0.00
2018-02-14T01:52:32.700Z,0.00
2018-02-14T01:54:25.534Z,0.00
2018-02-14T01:55:25.491Z,0.00
2018-02-14T01:57:18.309Z,0.00
2018-02-14T01:58:18.282Z,0.00
2018-02-14T02:00:11.612Z,0.00
2018-02-14T02:01:11.566Z,0.00
2018-02-14T02:03:04.879Z,0.00
2018-02-14T02:04:04.853Z,0.00
2018-02-14T02:05:58.192Z,0.00
2018-02-14T02:06:58.151Z,0.00
2018-02-14T02:08:51.460Z,0.00
2018-02-14T02:09:51.435Z,0.00
2018-02-14T02:11:44.270Z,0.00
2018-02-14T02:12:44.229Z,0.00
2018-02-14T02:14:37.050Z,0.00
2018-02-14T02:15:37.014Z,0.00
2018-02-14T02:17:29.850Z,0.00
2018-02-14T02:18:29.808Z,0.00
2018-02-14T02:20:22.631Z,0.00
2018-02-14T02:21:22.607Z,0.00
2018-02-14T02:23:15.446Z,0.00
2018-02-14T02:24:15.395Z,0.00
2018-02-14T02:26:08.211Z,0.00
2018-02-14T02:27:08.185Z,0.00
2018-02-14T02:29:01.539Z,0.00
2018-02-14T02:30:01.475Z,0.00
2018-02-14T02:31:54.289Z,0.00
2018-02-14T02:32:54.259Z,0.00
2018-02-14T02:34:47.093Z,0.00
2018-02-14T02:35:47.051Z,0.00
2018-02-14T02:37:39.873Z,0.00
2018-02-14T02:38:39.844Z,0.00
2018-02-14T02:40:32.677Z,0.00
2018-02-14T02:41:32.634Z,0.00
2018-02-14T02:43:25.450Z,0.00
2018-02-14T02:44:25.425Z,0.00
2018-02-14T02:46:18.255Z,0.00
2018-02-14T02:47:18.213Z,0.00
2018-02-14T02:49:11.033Z,0.00
2018-02-14T02:50:11.003Z,0.00
2018-02-14T02:52:05.012Z,0.00
2018-02-14T02:53:03.796Z,0.00
2018-02-14T02:54:56.614Z,0.00
2018-02-14T02:55:56.589Z,0.00
2018-02-14T02:57:49.417Z,0.00
2018-02-14T02:58:49.376Z,0.00
2018-02-14T03:00:42.192Z,0.00
2018-02-14T03:01:42.165Z,0.00
2018-02-14T03:03:34.996Z,0.00
2018-02-14T03:04:34.951Z,0.00
2018-02-14T03:06:27.772Z,0.00
2018-02-14T03:07:27.744Z,0.00
2018-02-14T03:09:20.579Z,0.00
2018-02-14T03:10:20.535Z,0.00
2018-02-14T03:12:13.354Z,0.00
2018-02-14T03:13:13.328Z,0.00
2018-02-14T03:15:06.157Z,0.00
2018-02-14T03:16:06.114Z,0.00
2018-02-14T03:17:58.933Z,0.00
2018-02-14T03:18:58.905Z,0.00
2018-02-14T03:20:51.740Z,0.00
2018-02-14T03:21:51.698Z,0.00
2018-02-14T03:23:45.011Z,0.00
2018-02-14T03:24:44.981Z,0.00
2018-02-14T03:26:37.813Z,0.00
2018-02-14T03:27:37.772Z,0.00
2018-02-14T03:29:30.589Z,0.00
2018-02-14T03:30:30.565Z,0.00
2018-02-14T03:32:23.391Z,0.00
2018-02-14T03:33:23.349Z,0.00
2018-02-14T03:35:16.168Z,0.00
2018-02-14T03:36:16.141Z,0.00
2018-02-14T03:38:08.986Z,0.00
2018-02-14T03:39:08.934Z,0.00
2018-02-14T03:41:01.749Z,0.00
2018-02-14T03:42:01.722Z,0.00
2018-02-14T03:43:54.551Z,0.00
2018-02-14T03:44:54.509Z,0.00
2018-02-14T03:46:47.329Z,0.00
2018-02-14T03:47:47.303Z,0.00
2018-02-14T03:49:40.630Z,0.00
2018-02-14T03:50:40.587Z,0.00
2018-02-14T03:52:33.403Z,0.00
2018-02-14T03:53:33.376Z,0.00
2018-02-14T03:55:26.213Z,0.00
2018-02-14T03:56:26.162Z,0.00
2018-02-14T03:58:18.980Z,0.00
2018-02-14T03:59:18.951Z,0.00
2018-02-14T04:01:11.785Z,0.00
2018-02-14T04:02:11.744Z,0.00
2018-02-14T04:04:04.562Z,0.00
2018-02-14T04:05:04.532Z,0.00
2018-02-14T04:06:57.364Z,0.00
2018-02-14T04:07:57.321Z,0.00
2018-02-14T04:09:50.137Z,0.00
2018-02-14T04:10:50.107Z,0.00
2018-02-14T04:12:42.942Z,0.00
2018-02-14T04:13:42.899Z,0.00
2018-02-14T04:15:35.713Z,0.00
2018-02-14T04:16:35.685Z,0.00
2018-02-14T04:18:28.520Z,0.00
2018-02-14T04:19:28.474Z,0.00
2018-02-14T04:21:21.340Z,0.00
2018-02-14T04:22:21.264Z,0.00
2018-02-14T04:24:14.105Z,0.00
2018-02-14T04:25:14.054Z,0.00
2018-02-14T04:27:06.935Z,0.00
2018-02-14T04:28:06.847Z,0.00
2018-02-14T04:29:59.676Z,0.00
2018-02-14T04:30:59.633Z,0.00
2018-02-14T04:32:52.455Z,0.00
2018-02-14T04:33:52.428Z,0.00
2018-02-14T04:35:45.264Z,0.00
2018-02-14T04:36:45.221Z,0.00
2018-02-14T04:38:38.039Z,0.00
2018-02-14T04:39:38.012Z,0.00
2018-02-14T04:41:30.839Z,0.00
2018-02-14T04:42:30.798Z,0.00
2018-02-14T04:44:23.614Z,0.00
2018-02-14T04:45:23.586Z,0.00
2018-02-14T04:47:16.418Z,0.00
2018-02-14T04:48:16.376Z,0.00
2018-02-14T04:50:09.194Z,0.00
2018-02-14T04:51:09.167Z,0.00
2018-02-14T04:53:02.001Z,0.00
2018-02-14T04:54:01.957Z,0.00
2018-02-14T04:55:54.776Z,0.00
2018-02-14T04:56:54.745Z,0.00
2018-02-14T04:58:47.585Z,0.00
2018-02-14T04:59:47.533Z,0.00
2018-02-14T05:01:40.352Z,0.00
2018-02-14T05:02:40.321Z,0.00
2018-02-14T05:04:33.151Z,0.00
2018-02-14T05:05:33.107Z,0.00
2018-02-14T05:07:26.422Z,0.00
2018-02-14T05:08:26.393Z,0.00
2018-02-14T05:10:19.227Z,0.00
2018-02-14T05:11:19.185Z,0.00
2018-02-14T05:13:12.000Z,0.00
2018-02-14T05:14:11.972Z,0.00
2018-02-14T05:16:04.802Z,0.00
2018-02-14T05:17:04.756Z,0.00
2018-02-14T05:18:57.577Z,0.00
2018-02-14T05:19:57.548Z,0.00
2018-02-14T05:21:50.871Z,0.00
2018-02-14T05:22:50.833Z,0.00
2018-02-14T05:24:43.651Z,0.00
2018-02-14T05:25:43.623Z,0.00
2018-02-14T05:27:36.467Z,0.00
2018-02-14T05:28:36.439Z,0.00
2018-02-14T05:30:29.234Z,0.00
2018-02-14T05:31:29.204Z,0.00
2018-02-14T05:33:22.034Z,0.00
2018-02-14T05:34:21.998Z,0.00
2018-02-14T05:36:14.811Z,0.00
2018-02-14T05:37:14.786Z,0.00
2018-02-14T05:39:07.619Z,0.00
2018-02-14T05:40:07.578Z,0.00
2018-02-14T05:42:00.393Z,0.00
2018-02-14T05:43:00.362Z,0.00
2018-02-14T05:44:53.194Z,0.00
2018-02-14T05:45:53.152Z,0.00
2018-02-14T05:47:45.971Z,0.00
2018-02-14T05:48:45.949Z,0.00
2018-02-14T05:50:38.772Z,0.00
2018-02-14T05:51:38.731Z,0.00
2018-02-14T05:53:31.550Z,0.00
2018-02-14T05:54:31.521Z,0.00
2018-02-14T05:56:24.404Z,0.00
2018-02-14T05:57:24.307Z,0.00
2018-02-14T05:59:17.122Z,0.00
2018-02-14T06:00:17.095Z,0.00
2018-02-14T06:02:09.936Z,0.00
2018-02-14T06:03:09.888Z,0.00
2018-02-14T06:05:03.200Z,0.00
2018-02-14T06:06:03.172Z,0.00
2018-02-14T06:07:56.009Z,0.00
2018-02-14T06:08:55.965Z,0.00
2018-02-14T06:10:48.782Z,0.00
2018-02-14T06:11:48.755Z,0.00
2018-02-14T06:13:41.586Z,0.00
2018-02-14T06:14:41.543Z,0.00
2018-02-14T06:16:34.851Z,0.00
2018-02-14T06:17:34.829Z,4.00
2018-02-14T06:19:27.657Z,4.00
2018-02-14T06:20:27.612Z,0.00
2018-02-14T06:22:20.436Z,4.00
2018-02-14T06:23:20.402Z,4.00
2018-02-14T06:25:13.237Z,4.00
2018-02-14T06:26:13.192Z,8.00
2018-02-14T06:28:06.009Z,8.00
2018-02-14T06:29:05.984Z,8.00
2018-02-14T06:30:58.830Z,12.00
2018-02-14T06:31:58.781Z,12.00
2018-02-14T06:33:52.090Z,16.00
2018-02-14T06:34:52.061Z,20.00
2018-02-14T06:36:44.894Z,20.00
2018-02-14T06:37:44.861Z,24.00
2018-02-14T06:39:37.670Z,28.00
2018-02-14T06:40:37.642Z,32.00
2018-02-14T06:42:30.967Z,36.00
2018-02-14T06:43:30.924Z,40.00
2018-02-14T06:45:23.750Z,48.00
2018-02-14T06:46:23.721Z,52.00
2018-02-14T06:48:17.053Z,56.00
2018-02-14T06:49:17.007Z,60.00
2018-02-14T06:51:10.318Z,72.00
2018-02-14T06:52:10.289Z,72.00
2018-02-14T06:54:03.613Z,80.00
2018-02-14T06:55:03.572Z,88.00
2018-02-14T06:56:56.882Z,92.00
2018-02-14T06:57:56.856Z,100.00
2018-02-14T06:59:50.184Z,104.00
2018-02-14T07:00:50.141Z,108.00
2018-02-14T07:02:43.449Z,116.00
2018-02-14T07:03:43.422Z,120.00
2018-02-14T07:05:36.746Z,132.00
2018-02-14T07:06:36.707Z,136.00
2018-02-14T07:08:29.535Z,140.00
2018-02-14T07:09:29.507Z,144.00
2018-02-14T07:11:22.828Z,156.00
2018-02-14T07:12:22.801Z,156.00
2018-02-14T07:14:16.097Z,164.00
2018-02-14T07:15:16.073Z,168.00
2018-02-14T07:17:09.396Z,172.00
2018-02-14T07:18:09.358Z,176.00
2018-02-14T07:20:02.672Z,184.00
2018-02-14T07:21:02.644Z,188.00
2018-02-14T07:22:55.474Z,192.00
2018-02-14T07:23:55.434Z,196.00
2018-02-14T07:25:48.744Z,204.00
2018-02-14T07:26:48.715Z,204.00
2018-02-14T07:28:41.555Z,208.00
2018-02-14T07:29:41.510Z,216.00
2018-02-14T07:31:34.329Z,220.00
2018-02-14T07:32:34.303Z,220.00
2018-02-14T07:34:27.632Z,228.00
2018-02-14T07:35:27.587Z,232.00
2018-02-14T07:37:20.403Z,236.00
2018-02-14T07:38:20.374Z,240.00
2018-02-14T07:40:13.700Z,240.00
2018-02-14T07:41:13.657Z,248.00
2018-02-14T07:43:06.975Z,252.00
2018-02-14T07:44:06.947Z,256.00
2018-02-14T07:46:00.289Z,256.00
2018-02-14T07:47:00.231Z,260.00
2018-02-14T07:48:53.555Z,268.00
2018-02-14T07:49:53.525Z,268.00
2018-02-14T07:51:46.402Z,276.00
2018-02-14T07:52:46.315Z,276.00
2018-02-14T07:54:39.624Z,276.00
2018-02-14T07:55:39.598Z,280.00
2018-02-14T07:57:32.925Z,284.00
2018-02-14T07:58:32.880Z,288.00
2018-02-14T08:00:26.189Z,292.00
2018-02-14T08:01:26.161Z,292.00
2018-02-14T08:03:18.995Z,296.00
2018-02-14T08:04:18.951Z,296.00
2018-02-14T08:06:12.261Z,300.00
2018-02-14T08:07:12.234Z,304.00
2018-02-14T08:09:05.072Z,308.00
2018-02-14T08:10:05.022Z,308.00
2018-02-14T08:11:57.841Z,312.00
2018-02-14T08:12:57.814Z,312.00
2018-02-14T08:14:50.745Z,320.00
2018-02-14T08:15:50.605Z,320.00
2018-02-14T08:17:43.420Z,324.00
2018-02-14T08:18:43.395Z,324.00
2018-02-14T08:20:36.732Z,328.00
2018-02-14T08:21:36.691Z,328.00
2018-02-14T08:23:29.517Z,336.00
2018-02-14T08:24:29.489Z,336.00
2018-02-14T08:26:22.833Z,340.00
2018-02-14T08:27:22.790Z,340.00
2018-02-14T08:29:15.607Z,344.00
2018-02-14T08:30:15.576Z,348.00
2018-02-14T08:32:08.983Z,352.00
2018-02-14T08:33:08.872Z,352.00
2018-02-14T08:35:01.689Z,356.00
2018-02-14T08:36:01.660Z,360.00
2018-02-14T08:37:54.987Z,364.00
2018-02-14T08:38:54.943Z,368.00
2018-02-14T08:40:47.760Z,376.00
2018-02-14T08:41:47.734Z,376.00
2018-02-14T08:43:40.566Z,380.00
2018-02-14T08:44:40.523Z,380.00
2018-02-14T08:46:33.348Z,384.00
2018-02-14T08:47:33.321Z,384.00
2018-02-14T08:49:26.161Z,392.00
2018-02-14T08:50:26.113Z,388.00
2018-02-14T08:52:18.935Z,396.00
2018-02-14T08:53:18.909Z,396.00
2018-02-14T08:55:11.738Z,400.00
2018-02-14T08:56:11.700Z,404.00
2018-02-14T08:58:04.518Z,404.00
2018-02-14T08:59:04.489Z,412.00
2018-02-14T09:00:57.324Z,420.00
2018-02-14T09:01:57.281Z,424.00
2018-02-14T09:03:50.100Z,432.00
2018-02-14T09:04:50.081Z,436.00
2018-02-14T09:06:43.406Z,452.00
2018-02-14T09:07:43.357Z,468.00
2018-02-14T09:09:36.178Z,512.00
2018-02-14T09:10:36.146Z,536.00
2018-02-14T09:12:28.976Z,588.00
2018-02-14T09:13:28.936Z,608.00
2018-02-14T09:15:22.258Z,640.00
2018-02-14T09:16:22.229Z,660.00
2018-02-14T09:18:15.070Z,700.00
2018-02-14T09:19:15.023Z,720.00
2018-02-14T09:21:07.840Z,748.00
2018-02-14T09:22:07.812Z,768.00
2018-02-14T09:24:01.156Z,792.00
2018-02-14T09:25:01.110Z,800.00
2018-02-14T09:26:54.423Z,812.00
2018-02-14T09:27:54.394Z,816.00
2018-02-14T09:29:47.231Z,824.00
2018-02-14T09:30:47.188Z,816.00
2018-02-14T09:32:40.014Z,800.00
2018-02-14T09:33:39.989Z,788.00
2018-02-14T09:35:32.827Z,732.00
2018-02-14T09:36:32.781Z,680.00
2018-02-14T09:38:26.101Z,616.00
2018-02-14T09:39:26.075Z,588.00
2018-02-14T09:41:18.906Z,564.00
2018-02-14T09:42:18.864Z,560.00
2018-02-14T09:44:12.183Z,568.00
2018-02-14T09:45:12.158Z,564.00
2018-02-14T09:47:04.990Z,576.00
2018-02-14T09:48:04.947Z,576.00
2018-02-14T09:49:58.273Z,584.00
2018-02-14T09:50:58.244Z,584.00
2018-02-14T09:52:51.081Z,588.00
2018-02-14T09:53:51.041Z,596.00
2018-02-14T09:55:43.861Z,592.00
2018-02-14T09:56:43.834Z,600.00
2018-02-14T09:58:37.162Z,596.00
2018-02-14T09:59:37.120Z,600.00
2018-02-14T10:01:30.434Z,608.00
2018-02-14T10:02:30.409Z,604.00
2018-02-14T10:04:23.242Z,628.00
2018-02-14T10:05:23.197Z,636.00
2018-02-14T10:07:16.517Z,640.00
2018-02-14T10:08:16.491Z,640.00
2018-02-14T10:10:09.327Z,644.00
2018-02-14T10:11:09.318Z,648.00
2018-02-14T10:13:02.111Z,660.00
2018-02-14T10:14:02.075Z,664.00
2018-02-14T10:15:54.912Z,664.00
2018-02-14T10:16:54.870Z,668.00
2018-02-14T10:18:47.690Z,676.00
2018-02-14T10:19:47.664Z,680.00
2018-02-14T10:21:41.002Z,700.00
2018-02-14T10:22:40.962Z,708.00
2018-02-14T10:24:33.785Z,716.00
2018-02-14T10:25:33.758Z,716.00
2018-02-14T10:27:26.594Z,728.00
2018-02-14T10:28:26.569Z,728.00
2018-02-14T10:30:19.375Z,732.00
2018-02-14T10:31:19.349Z,740.00
2018-02-14T10:33:12.194Z,760.00
2018-02-14T10:34:12.146Z,764.00
2018-02-14T10:36:04.971Z,768.00
2018-02-14T10:37:04.944Z,764.00
2018-02-14T10:38:58.288Z,768.00
2018-02-14T10:39:58.246Z,768.00
2018-02-14T10:41:51.070Z,772.00
2018-02-14T10:42:51.043Z,784.00
2018-02-14T10:44:44.374Z,804.00
2018-02-14T10:45:44.332Z,808.00
2018-02-14T10:47:37.153Z,824.00
2018-02-14T10:48:37.127Z,844.00
2018-02-14T10:50:29.967Z,848.00
2018-02-14T10:51:29.923Z,844.00
2018-02-14T10:53:22.749Z,840.00
2018-02-14T10:54:22.721Z,836.00
2018-02-14T10:56:15.561Z,840.00
2018-02-14T10:57:15.517Z,848.00
2018-02-14T10:59:08.844Z,856.00
2018-02-14T11:00:08.822Z,868.00
2018-02-14T11:02:02.166Z,868.00
2018-02-14T11:03:02.121Z,872.00
2018-02-14T11:04:54.948Z,868.00
2018-02-14T11:05:54.921Z,860.00
2018-02-14T11:07:47.764Z,856.00
2018-02-14T11:08:47.725Z,864.00
2018-02-14T11:10:40.550Z,908.00
2018-02-14T11:11:40.525Z,920.00
2018-02-14T11:13:33.859Z,928.00
2018-02-14T11:14:33.815Z,936.00
2018-02-14T11:16:26.639Z,936.00
2018-02-14T11:17:26.613Z,924.00
2018-02-14T11:19:19.452Z,924.00
2018-02-14T11:20:19.408Z,920.00
2018-02-14T11:22:12.237Z,928.00
2018-02-14T11:23:12.213Z,924.00
2018-02-14T11:25:05.053Z,932.00
2018-02-14T11:26:05.011Z,936.00
2018-02-14T11:27:57.836Z,960.00
2018-02-14T11:28:57.808Z,976.00
2018-02-14T11:30:50.650Z,1008.00
2018-02-14T11:31:50.607Z,1016.00
2018-02-14T11:33:43.435Z,1040.00
2018-02-14T11:34:43.408Z,1048.00
2018-02-14T11:36:36.249Z,1072.00
2018-02-14T11:37:36.210Z,1080.00
2018-02-14T11:39:29.036Z,1088.00
2018-02-14T11:40:29.015Z,1084.00
2018-02-14T11:42:21.846Z,1080.00
2018-02-14T11:43:21.809Z,1080.00
2018-02-14T11:45:14.638Z,1088.00
2018-02-14T11:46:14.611Z,1096.00
2018-02-14T11:48:07.450Z,1128.00
2018-02-14T11:49:07.411Z,1128.00
2018-02-14T11:51:00.243Z,1120.00
2018-02-14T11:52:00.220Z,1112.00
2018-02-14T11:53:53.058Z,1116.00
2018-02-14T11:54:53.019Z,1120.00
2018-02-14T11:56:45.849Z,1132.00
2018-02-14T11:57:45.828Z,1144.00
2018-02-14T11:59:38.665Z,1156.00
2018-02-14T12:00:38.621Z,1160.00
2018-02-14T12:02:31.449Z,1160.00
2018-02-14T12:03:31.425Z,1168.00
2018-02-14T12:05:24.264Z,1180.00
2018-02-14T12:06:24.225Z,1188.00
2018-02-14T12:08:17.056Z,1192.00
2018-02-14T12:09:17.033Z,1192.00
2018-02-14T12:11:09.875Z,1200.00
2018-02-14T12:12:09.840Z,1192.00
2018-02-14T12:14:02.658Z,1196.00
2018-02-14T12:15:02.634Z,1208.00
2018-02-14T12:16:55.471Z,1216.00
2018-02-14T12:17:55.430Z,1220.00
2018-02-14T12:19:48.259Z,1220.00
2018-02-14T12:20:48.233Z,1216.00
2018-02-14T12:22:41.074Z,1220.00
2018-02-14T12:23:41.032Z,1224.00
2018-02-14T12:25:33.857Z,1224.00
2018-02-14T12:26:33.832Z,1224.00
2018-02-14T12:28:26.672Z,1228.00
2018-02-14T12:29:26.631Z,1236.00
2018-02-14T12:31:19.460Z,1264.00
2018-02-14T12:32:19.435Z,1296.00
2018-02-14T12:34:12.276Z,1376.00
2018-02-14T12:35:12.237Z,1404.00
2018-02-14T12:37:05.068Z,1448.00
2018-02-14T12:38:05.044Z,1464.00
2018-02-14T12:39:57.885Z,1544.00
2018-02-14T12:40:57.845Z,1580.00
2018-02-14T12:42:50.671Z,1624.00
2018-02-14T12:43:50.646Z,1672.00
2018-02-14T12:45:43.485Z,1740.00
2018-02-14T12:46:43.448Z,1780.00
2018-02-14T12:48:36.273Z,1836.00
2018-02-14T12:49:36.248Z,1860.00
2018-02-14T12:51:29.094Z,1924.00
2018-02-14T12:52:29.057Z,1960.00
2018-02-14T12:54:21.885Z,2032.00
2018-02-14T12:55:21.860Z,2060.00
2018-02-14T12:57:14.707Z,2120.00
2018-02-14T12:58:14.663Z,2184.00
2018-02-14T13:00:07.491Z,2316.00
2018-02-14T13:01:07.467Z,2368.00
2018-02-14T13:03:00.309Z,2496.00
2018-02-14T13:04:00.268Z,2540.00
2018-02-14T13:05:53.592Z,2676.00
2018-02-14T13:06:53.570Z,2732.00
2018-02-14T13:08:46.412Z,2808.00
2018-02-14T13:09:46.377Z,2824.00
2018-02-14T13:11:39.215Z,2828.00
2018-02-14T13:12:39.186Z,2856.00
2018-02-14T13:14:32.028Z,2892.00
2018-02-14T13:15:31.996Z,2940.00
2018-02-14T13:17:24.818Z,2984.00
2018-02-14T13:18:24.797Z,2932.00
2018-02-14T13:20:17.643Z,2932.00
2018-02-14T13:21:17.604Z,2900.00
2018-02-14T13:23:10.928Z,2980.00
2018-02-14T13:24:10.907Z,2972.00
2018-02-14T13:26:03.756Z,2992.00
2018-02-14T13:27:03.711Z,2988.00
2018-02-14T13:28:56.550Z,2956.00
2018-02-14T13:29:56.527Z,2944.00
2018-02-14T13:31:49.370Z,2968.00
2018-02-14T13:32:49.336Z,3000.00
2018-02-14T13:34:42.169Z,2996.00
2018-02-14T13:35:42.144Z,3032.00
2018-02-14T13:37:34.997Z,3012.00
2018-02-14T13:38:34.956Z,3004.00
2018-02-14T13:40:27.780Z,2964.00
2018-02-14T13:41:27.761Z,2944.00
2018-02-14T13:43:20.605Z,2920.00
2018-02-14T13:44:20.568Z,2908.00
2018-02-14T13:46:13.404Z,2880.00
2018-02-14T13:47:13.382Z,2852.00
2018-02-14T13:49:06.228Z,2824.00
2018-02-14T13:50:06.225Z,2796.00
2018-02-14T13:51:59.513Z,2824.00
2018-02-14T13:52:59.492Z,2844.00
2018-02-14T13:54:52.835Z,2848.00
2018-02-14T13:55:52.792Z,2832.00
2018-02-14T13:57:45.626Z,2792.00
2018-02-14T13:58:45.604Z,2780.00
2018-02-14T14:00:38.458Z,2760.00
2018-02-14T14:01:38.422Z,2744.00
2018-02-14T14:03:31.747Z,2756.00
2018-02-14T14:04:31.724Z,2720.00
2018-02-14T14:06:24.571Z,2668.00
2018-02-14T14:07:24.534Z,2656.00
2018-02-14T14:09:17.365Z,2628.00
2018-02-14T14:10:17.349Z,2572.00
2018-02-14T14:12:10.681Z,2508.00
2018-02-14T14:13:10.648Z,2448.00
2018-02-14T14:15:03.481Z,2372.00
2018-02-14T14:16:03.463Z,2328.00
2018-02-14T14:17:56.309Z,2268.00
2018-02-14T14:18:56.276Z,2232.00
2018-02-14T14:20:49.109Z,2168.00
2018-02-14T14:21:49.035Z,2136.00
2018-02-14T14:23:42.406Z,2096.00
2018-02-14T14:24:42.372Z,2100.00
2018-02-14T14:26:35.229Z,2124.00
2018-02-14T14:27:35.206Z,2164.00
2018-02-14T14:29:28.086Z,2672.00
2018-02-14T14:30:28.056Z,3184.00
2018-02-14T14:32:21.408Z,3928.00
2018-02-14T14:33:21.390Z,4232.00
2018-02-14T14:35:14.256Z,4420.00
2018-02-14T14:36:14.220Z,4392.00
2018-02-14T14:38:07.078Z,4388.00
2018-02-14T14:39:07.060Z,4476.00
2018-02-14T14:40:59.930Z,4376.00
2018-02-14T14:41:59.896Z,4100.00
2018-02-14T14:43:52.757Z,3600.00
2018-02-14T14:44:52.737Z,3384.00
2018-02-14T14:46:45.612Z,3036.00
2018-02-14T14:47:45.579Z,2908.00
2018-02-14T14:49:38.440Z,2828.00
2018-02-14T14:50:38.420Z,2820.00
2018-02-14T14:52:31.291Z,2796.00
2018-02-14T14:53:31.261Z,2752.00
2018-02-14T14:55:24.134Z,2676.00
2018-02-14T14:56:24.111Z,2664.00
2018-02-14T14:58:17.474Z,2620.00
2018-02-14T14:59:17.441Z,2560.00
2018-02-14T15:01:10.300Z,2472.00
2018-02-14T15:02:10.282Z,2436.00
2018-02-14T15:04:03.150Z,2388.00
2018-02-14T15:05:03.119Z,2376.00
2018-02-14T15:06:55.976Z,2368.00
2018-02-14T15:07:55.955Z,2360.00
2018-02-14T15:09:48.828Z,2336.00
2018-02-14T15:10:48.790Z,2316.00
2018-02-14T15:12:41.646Z,2272.00
2018-02-14T15:13:41.626Z,2248.00
2018-02-14T15:15:34.499Z,2224.00
2018-02-14T15:16:34.465Z,2204.00
2018-02-14T15:18:27.324Z,2172.00
2018-02-14T15:19:27.315Z,2168.00
2018-02-14T15:21:20.173Z,2132.00
2018-02-14T15:22:20.138Z,2116.00
2018-02-14T15:24:12.996Z,2060.00
2018-02-14T15:25:12.977Z,2040.00
2018-02-14T15:27:05.846Z,2024.00
2018-02-14T15:28:05.815Z,2020.00
2018-02-14T15:29:58.666Z,1988.00
2018-02-14T15:30:58.644Z,1968.00
2018-02-14T15:32:51.524Z,1932.00
2018-02-14T15:33:51.489Z,1916.00
2018-02-14T15:35:44.360Z,1832.00
2018-02-14T15:36:44.337Z,1708.00
2018-02-14T15:38:37.234Z,1788.00
2018-02-14T15:39:37.186Z,1768.00
2018-02-14T15:41:30.035Z,1720.00
2018-02-14T15:42:30.017Z,1692.00
2018-02-14T15:44:23.379Z,1632.00
2018-02-14T15:45:23.346Z,1600.00
2018-02-14T15:47:16.707Z,1544.00
2018-02-14T15:48:16.716Z,1520.00
2018-02-14T15:50:09.559Z,1440.00
2018-02-14T15:51:09.522Z,1404.00
2018-02-14T15:53:02.385Z,1336.00
2018-02-14T15:54:02.362Z,1312.00
2018-02-14T15:55:55.234Z,1256.00
2018-02-14T15:56:55.200Z,1224.00
2018-02-14T15:58:48.052Z,1148.00
2018-02-14T15:59:48.031Z,1108.00
2018-02-14T16:01:41.392Z,1036.00
2018-02-14T16:02:41.356Z,996.00
2018-02-14T16:04:34.713Z,920.00
2018-02-14T16:05:34.692Z,888.00
2018-02-14T16:07:27.561Z,812.00
2018-02-14T16:08:27.529Z,772.00
2018-02-14T16:10:20.380Z,636.00
2018-02-14T16:11:20.360Z,584.00
2018-02-14T16:13:13.227Z,488.00
2018-02-14T16:14:13.194Z,452.00
2018-02-14T16:16:06.047Z,324.00
2018-02-14T16:17:06.026Z,324.00
2018-02-14T16:18:58.903Z,360.00
2018-02-14T16:19:58.867Z,356.00
2018-02-14T16:21:51.720Z,288.00
2018-02-14T16:22:51.699Z,228.00
2018-02-14T16:24:44.566Z,172.00
2018-02-14T16:25:44.533Z,164.00
2018-02-14T16:27:37.387Z,120.00
2018-02-14T16:28:37.368Z,124.00
2018-02-14T16:30:30.230Z,112.00
2018-02-14T16:31:30.195Z,104.00
2018-02-14T16:33:23.545Z,84.00
2018-02-14T16:34:23.527Z,72.00
2018-02-14T16:36:16.384Z,60.00
2018-02-14T16:37:16.347Z,52.00
2018-02-14T16:39:09.198Z,44.00
2018-02-14T16:40:09.180Z,36.00
2018-02-14T16:42:02.041Z,36.00
2018-02-14T16:43:02.007Z,36.00
2018-02-14T16:44:54.857Z,28.00
2018-02-14T16:45:54.836Z,32.00
2018-02-14T16:47:47.705Z,28.00
2018-02-14T16:48:47.669Z,24.00
2018-02-14T16:50:40.519Z,20.00
2018-02-14T16:51:40.497Z,16.00
2018-02-14T16:53:33.360Z,12.00
2018-02-14T16:54:33.325Z,12.00
2018-02-14T16:56:26.171Z,8.00
2018-02-14T16:57:26.151Z,8.00
2018-02-14T16:59:19.012Z,8.00
2018-02-14T17:00:18.977Z,8.00
2018-02-14T17:02:11.825Z,8.00
2018-02-14T17:03:11.805Z,4.00
2018-02-14T17:05:04.663Z,8.00
2018-02-14T17:06:04.631Z,4.00
2018-02-14T17:07:57.480Z,4.00
2018-02-14T17:08:57.452Z,4.00
2018-02-14T17:10:50.320Z,4.00
2018-02-14T17:11:50.274Z,0.00
2018-02-14T17:13:43.124Z,0.00
2018-02-14T17:14:43.100Z,0.00
2018-02-14T17:16:35.962Z,4.00
2018-02-14T17:17:35.927Z,4.00
2018-02-14T17:19:28.774Z,4.00
2018-02-14T17:20:28.753Z,4.00
2018-02-14T17:22:21.614Z,4.00
2018-02-14T17:23:21.572Z,4.00
2018-02-14T17:25:14.422Z,4.00
2018-02-14T17:26:14.400Z,4.00
2018-02-14T17:28:07.268Z,4.00
2018-02-14T17:29:07.231Z,4.00
2018-02-14T17:31:00.077Z,4.00
2018-02-14T17:32:00.053Z,4.00
2018-02-14T17:33:52.917Z,4.00
2018-02-14T17:34:52.878Z,4.00
2018-02-14T17:36:45.724Z,4.00
2018-02-14T17:37:45.702Z,4.00
2018-02-14T17:39:39.067Z,4.00
2018-02-14T17:40:39.027Z,0.00
2018-02-14T17:42:31.873Z,0.00
2018-02-14T17:43:31.851Z,4.00
2018-02-14T17:45:24.645Z,0.00
2018-02-14T17:46:24.603Z,0.00
2018-02-14T17:48:17.427Z,0.00
2018-02-14T17:49:17.423Z,0.00
2018-02-14T17:51:10.739Z,0.00
2018-02-14T17:52:10.698Z,0.00
2018-02-14T17:54:03.525Z,0.00
2018-02-14T17:55:03.502Z,0.00
2018-02-14T17:56:56.613Z,0.00
2018-02-14T17:57:56.307Z,0.00
2018-02-14T17:59:49.134Z,0.00
2018-02-14T18:00:49.103Z,0.00
2018-02-14T18:02:41.947Z,0.00
2018-02-14T18:03:41.905Z,0.00
2018-02-14T18:05:34.734Z,0.00
2018-02-14T18:06:34.708Z,0.00
2018-02-14T18:08:27.551Z,0.00
2018-02-14T18:09:27.509Z,0.00
2018-02-14T18:11:20.332Z,0.00
2018-02-14T18:12:20.307Z,0.00
2018-02-14T18:14:13.149Z,0.00
2018-02-14T18:15:13.109Z,0.00
2018-02-14T18:17:05.937Z,0.00
2018-02-14T18:18:05.909Z,0.00
2018-02-14T18:19:58.750Z,0.00
2018-02-14T18:20:58.711Z,0.00